sensor_id;sensor_type;location;lat;lon;timestamp;pressure;altitude;pressure_sealevel;temperature;humidity
76603;BME280;65075;48.390;17.598;2023-07-31T00:00:28;99556.06;;;26.04;45.90
76603;BME280;65075;48.390;17.598;2023-07-31T00:02:54;99558.44;;;26.02;45.81
76603;BME280;65075;48.390;17.598;2023-07-31T00:05:21;99502.94;;;25.39;46.47
76603;BME280;65075;48.390;17.598;2023-07-31T00:07:46;99556.81;;;26.01;46.23
76603;BME280;65075;48.390;17.598;2023-07-31T00:10:12;99546.22;;;25.11;48.38
76603;BME280;65075;48.390;17.598;2023-07-31T00:12:38;99517.97;;;25.73;46.54
76603;BME280;65075;48.390;17.598;2023-07-31T00:15:06;99551.53;;;26.41;44.85
76603;BME280;65075;48.390;17.598;2023-07-31T00:17:32;99558.03;;;26.23;45.31
76603;BME280;65075;48.390;17.598;2023-07-31T00:19:57;99561.31;;;26.28;45.11
76603;BME280;65075;48.390;17.598;2023-07-31T00:22:23;99559.19;;;25.99;45.60
76603;BME280;65075;48.390;17.598;2023-07-31T00:24:49;99565.91;;;24.32;50.61
76603;BME280;65075;48.390;17.598;2023-07-31T00:27:14;99531.88;;;25.12;47.72
76603;BME280;65075;48.390;17.598;2023-07-31T00:29:40;99565.94;;;23.73;51.93
76603;BME280;65075;48.390;17.598;2023-07-31T00:32:06;99561.19;;;23.89;51.12
76603;BME280;65075;48.390;17.598;2023-07-31T00:34:31;99535.97;;;23.55;52.46
76603;BME280;65075;48.390;17.598;2023-07-31T00:36:57;99554.34;;;23.87;51.71
76603;BME280;65075;48.390;17.598;2023-07-31T00:39:22;99564.28;;;23.57;52.61
76603;BME280;65075;48.390;17.598;2023-07-31T00:41:48;99558.34;;;23.30;53.17
76603;BME280;65075;48.390;17.598;2023-07-31T00:44:14;99560.16;;;23.66;51.71
76603;BME280;65075;48.390;17.598;2023-07-31T00:46:39;99536.16;;;23.62;51.50
76603;BME280;65075;48.390;17.598;2023-07-31T00:49:05;99553.22;;;22.93;53.97
76603;BME280;65075;48.390;17.598;2023-07-31T00:51:32;99559.34;;;22.98;54.61
76603;BME280;65075;48.390;17.598;2023-07-31T00:53:58;99561.97;;;22.67;54.37
76603;BME280;65075;48.390;17.598;2023-07-31T00:56:25;99562.97;;;23.39;51.96
76603;BME280;65075;48.390;17.598;2023-07-31T00:58:51;99548.50;;;22.69;53.06
76603;BME280;65075;48.390;17.598;2023-07-31T01:01:16;99561.81;;;22.15;54.98
76603;BME280;65075;48.390;17.598;2023-07-31T01:03:42;99576.22;;;22.53;54.18
76603;BME280;65075;48.390;17.598;2023-07-31T01:09:04;99571.34;;;23.98;50.12
76603;BME280;65075;48.390;17.598;2023-07-31T01:11:57;99575.16;;;22.58;52.81
76603;BME280;65075;48.390;17.598;2023-07-31T01:14:21;99570.69;;;23.73;50.69
76603;BME280;65075;48.390;17.598;2023-07-31T01:16:47;99569.66;;;23.37;51.43
76603;BME280;65075;48.390;17.598;2023-07-31T01:19:14;99550.13;;;23.22;51.11
76603;BME280;65075;48.390;17.598;2023-07-31T01:26:58;99571.88;;;23.32;49.71
76603;BME280;65075;48.390;17.598;2023-07-31T01:29:35;99577.56;;;23.91;47.68
76603;BME280;65075;48.390;17.598;2023-07-31T01:32:05;99576.97;;;23.70;48.54
76603;BME280;65075;48.390;17.598;2023-07-31T01:34:32;99564.66;;;23.15;49.81
76603;BME280;65075;48.390;17.598;2023-07-31T01:36:58;99561.03;;;22.39;51.85
76603;BME280;65075;48.390;17.598;2023-07-31T01:39:23;99563.47;;;21.71;52.59
76603;BME280;65075;48.390;17.598;2023-07-31T01:41:49;99581.19;;;22.23;51.43
76603;BME280;65075;48.390;17.598;2023-07-31T01:44:14;99582.44;;;22.87;49.88
76603;BME280;65075;48.390;17.598;2023-07-31T01:46:40;99589.13;;;23.77;48.24
76603;BME280;65075;48.390;17.598;2023-07-31T01:49:06;99589.69;;;23.15;49.26
76603;BME280;65075;48.390;17.598;2023-07-31T01:51:31;99588.41;;;22.73;50.41
76603;BME280;65075;48.390;17.598;2023-07-31T01:54:02;99592.75;;;22.98;50.62
76603;BME280;65075;48.390;17.598;2023-07-31T01:56:29;99585.38;;;23.58;49.07
76603;BME280;65075;48.390;17.598;2023-07-31T01:58:54;99597.19;;;23.67;48.43
76603;BME280;65075;48.390;17.598;2023-07-31T02:01:20;99560.47;;;23.09;48.94
76603;BME280;65075;48.390;17.598;2023-07-31T02:03:45;99577.50;;;23.60;47.93
76603;BME280;65075;48.390;17.598;2023-07-31T02:06:11;99587.22;;;23.66;47.94
76603;BME280;65075;48.390;17.598;2023-07-31T02:08:36;99591.34;;;23.72;47.47
76603;BME280;65075;48.390;17.598;2023-07-31T02:11:03;99598.00;;;21.82;50.70
76603;BME280;65075;48.390;17.598;2023-07-31T02:13:28;99585.72;;;22.89;49.11
76603;BME280;65075;48.390;17.598;2023-07-31T02:15:54;99607.16;;;22.76;48.61
76603;BME280;65075;48.390;17.598;2023-07-31T02:18:19;99616.06;;;24.01;45.65
76603;BME280;65075;48.390;17.598;2023-07-31T02:20:53;99608.66;;;24.36;45.30
76603;BME280;65075;48.390;17.598;2023-07-31T02:23:19;99591.63;;;24.10;45.28
76603;BME280;65075;48.390;17.598;2023-07-31T02:25:45;99613.84;;;23.79;46.25
76603;BME280;65075;48.390;17.598;2023-07-31T02:28:11;99595.00;;;23.88;45.25
76603;BME280;65075;48.390;17.598;2023-07-31T02:30:37;99598.13;;;23.86;45.10
76603;BME280;65075;48.390;17.598;2023-07-31T02:33:02;99616.38;;;23.84;46.26
76603;BME280;65075;48.390;17.598;2023-07-31T02:35:28;99615.31;;;24.47;44.63
76603;BME280;65075;48.390;17.598;2023-07-31T02:37:53;99617.31;;;24.97;42.98
76603;BME280;65075;48.390;17.598;2023-07-31T02:40:19;99627.25;;;23.21;46.70
76603;BME280;65075;48.390;17.598;2023-07-31T02:42:44;99626.09;;;23.90;45.39
76603;BME280;65075;48.390;17.598;2023-07-31T02:45:10;99617.81;;;23.78;45.92
76603;BME280;65075;48.390;17.598;2023-07-31T02:47:36;99626.41;;;23.73;46.54
76603;BME280;65075;48.390;17.598;2023-07-31T02:50:04;99598.94;;;21.33;52.32
76603;BME280;65075;48.390;17.598;2023-07-31T02:52:30;99599.09;;;23.63;47.43
76603;BME280;65075;48.390;17.598;2023-07-31T02:54:57;99620.47;;;20.65;54.36
76603;BME280;65075;48.390;17.598;2023-07-31T02:57:22;99617.47;;;22.39;49.45
76603;BME280;65075;48.390;17.598;2023-07-31T02:59:48;99615.38;;;21.38;52.29
76603;BME280;65075;48.390;17.598;2023-07-31T03:02:13;99616.69;;;21.40;52.45
76603;BME280;65075;48.390;17.598;2023-07-31T03:04:39;99609.06;;;21.17;53.22
76603;BME280;65075;48.390;17.598;2023-07-31T03:07:05;99619.41;;;22.27;50.39
76603;BME280;65075;48.390;17.598;2023-07-31T03:09:30;99621.34;;;21.81;50.78
76603;BME280;65075;48.390;17.598;2023-07-31T03:11:56;99623.09;;;22.18;50.99
76603;BME280;65075;48.390;17.598;2023-07-31T03:14:22;99615.75;;;21.69;52.02
76603;BME280;65075;48.390;17.598;2023-07-31T03:16:47;99613.13;;;22.17;50.18
76603;BME280;65075;48.390;17.598;2023-07-31T03:19:13;99621.97;;;22.32;48.78
76603;BME280;65075;48.390;17.598;2023-07-31T03:21:38;99626.81;;;22.35;49.30
76603;BME280;65075;48.390;17.598;2023-07-31T03:24:04;99633.91;;;21.87;50.57
76603;BME280;65075;48.390;17.598;2023-07-31T03:26:31;99626.84;;;21.36;51.38
76603;BME280;65075;48.390;17.598;2023-07-31T03:28:57;99624.00;;;21.45;51.31
76603;BME280;65075;48.390;17.598;2023-07-31T03:31:22;99619.88;;;22.41;50.08
76603;BME280;65075;48.390;17.598;2023-07-31T03:33:48;99625.72;;;21.91;50.10
76603;BME280;65075;48.390;17.598;2023-07-31T03:36:13;99630.09;;;21.92;50.18
76603;BME280;65075;48.390;17.598;2023-07-31T03:38:39;99634.91;;;22.15;50.72
76603;BME280;65075;48.390;17.598;2023-07-31T03:41:04;99628.13;;;21.92;50.94
76603;BME280;65075;48.390;17.598;2023-07-31T03:43:32;99653.09;;;21.80;51.04
76603;BME280;65075;48.390;17.598;2023-07-31T03:46:00;99648.63;;;21.67;51.13
76603;BME280;65075;48.390;17.598;2023-07-31T03:48:26;99659.69;;;22.65;49.13
76603;BME280;65075;48.390;17.598;2023-07-31T03:50:51;99658.31;;;21.61;51.23
76603;BME280;65075;48.390;17.598;2023-07-31T03:53:17;99658.72;;;21.09;53.28
76603;BME280;65075;48.390;17.598;2023-07-31T03:55:42;99659.59;;;21.63;52.01
76603;BME280;65075;48.390;17.598;2023-07-31T03:58:08;99661.78;;;22.11;50.24
76603;BME280;65075;48.390;17.598;2023-07-31T04:00:33;99664.00;;;21.44;52.12
76603;BME280;65075;48.390;17.598;2023-07-31T04:02:59;99671.22;;;21.98;51.63
76603;BME280;65075;48.390;17.598;2023-07-31T04:05:25;99663.97;;;21.85;51.33
76603;BME280;65075;48.390;17.598;2023-07-31T04:07:50;99641.47;;;21.99;50.41
76603;BME280;65075;48.390;17.598;2023-07-31T04:10:16;99656.03;;;21.63;51.62
76603;BME280;65075;48.390;17.598;2023-07-31T04:12:41;99667.13;;;21.22;53.58
76603;BME280;65075;48.390;17.598;2023-07-31T04:15:07;99666.09;;;21.47;51.41
76603;BME280;65075;48.390;17.598;2023-07-31T04:17:32;99674.50;;;22.12;50.14
76603;BME280;65075;48.390;17.598;2023-07-31T04:19:58;99639.59;;;21.37;52.60
76603;BME280;65075;48.390;17.598;2023-07-31T04:22:24;99670.13;;;22.23;49.75
76603;BME280;65075;48.390;17.598;2023-07-31T04:24:49;99650.16;;;21.97;50.47
76603;BME280;65075;48.390;17.598;2023-07-31T04:27:14;99627.38;;;21.30;51.79
76603;BME280;65075;48.390;17.598;2023-07-31T04:29:40;99650.41;;;22.04;50.32
76603;BME280;65075;48.390;17.598;2023-07-31T04:32:08;99648.78;;;22.97;49.39
76603;BME280;65075;48.390;17.598;2023-07-31T04:34:33;99649.53;;;22.37;49.45
76603;BME280;65075;48.390;17.598;2023-07-31T04:36:59;99661.88;;;22.84;48.67
76603;BME280;65075;48.390;17.598;2023-07-31T04:39:24;99660.69;;;22.04;51.46
76603;BME280;65075;48.390;17.598;2023-07-31T04:41:50;99649.66;;;22.28;50.86
76603;BME280;65075;48.390;17.598;2023-07-31T04:44:15;99625.13;;;23.03;48.54
76603;BME280;65075;48.390;17.598;2023-07-31T04:46:41;99654.63;;;23.31;47.64
76603;BME280;65075;48.390;17.598;2023-07-31T04:49:06;99655.09;;;23.46;47.95
76603;BME280;65075;48.390;17.598;2023-07-31T04:51:32;99656.94;;;23.42;47.54
76603;BME280;65075;48.390;17.598;2023-07-31T04:53:57;99605.97;;;22.16;50.56
76603;BME280;65075;48.390;17.598;2023-07-31T04:56:23;99661.19;;;22.87;49.73
76603;BME280;65075;48.390;17.598;2023-07-31T04:58:48;99651.13;;;23.34;47.78
76603;BME280;65075;48.390;17.598;2023-07-31T05:01:14;99651.34;;;23.81;47.17
76603;BME280;65075;48.390;17.598;2023-07-31T05:03:39;99644.94;;;23.01;48.63
76603;BME280;65075;48.390;17.598;2023-07-31T05:06:05;99604.75;;;23.39;47.39
76603;BME280;65075;48.390;17.598;2023-07-31T05:08:30;99648.47;;;23.38;47.96
76603;BME280;65075;48.390;17.598;2023-07-31T05:10:56;99651.41;;;24.87;44.09
76603;BME280;65075;48.390;17.598;2023-07-31T05:13:21;99667.16;;;24.48;45.01
76603;BME280;65075;48.390;17.598;2023-07-31T05:15:47;99657.84;;;24.76;44.73
76603;BME280;65075;48.390;17.598;2023-07-31T05:18:14;99666.31;;;26.03;41.51
76603;BME280;65075;48.390;17.598;2023-07-31T05:20:40;99660.13;;;27.56;38.92
76603;BME280;65075;48.390;17.598;2023-07-31T05:23:07;99667.75;;;26.35;41.07
76603;BME280;65075;48.390;17.598;2023-07-31T05:25:32;99676.16;;;26.58;39.56
76603;BME280;65075;48.390;17.598;2023-07-31T05:27:58;99677.97;;;27.45;38.43
76603;BME280;65075;48.390;17.598;2023-07-31T05:30:23;99678.56;;;27.05;39.67
76603;BME280;65075;48.390;17.598;2023-07-31T05:32:49;99664.88;;;25.36;42.80
76603;BME280;65075;48.390;17.598;2023-07-31T05:35:14;99682.59;;;25.43;42.56
76603;BME280;65075;48.390;17.598;2023-07-31T05:37:40;99654.84;;;25.89;42.24
76603;BME280;65075;48.390;17.598;2023-07-31T05:40:06;99663.97;;;25.47;41.65
76603;BME280;65075;48.390;17.598;2023-07-31T05:42:32;99688.56;;;26.80;39.73
76603;BME280;65075;48.390;17.598;2023-07-31T05:44:57;99682.88;;;27.25;38.14
76603;BME280;65075;48.390;17.598;2023-07-31T05:47:23;99690.53;;;26.14;40.45
76603;BME280;65075;48.390;17.598;2023-07-31T05:49:48;99690.28;;;26.42;40.32
76603;BME280;65075;48.390;17.598;2023-07-31T05:52:15;99675.47;;;26.64;38.70
76603;BME280;65075;48.390;17.598;2023-07-31T05:54:42;99677.25;;;27.81;37.16
76603;BME280;65075;48.390;17.598;2023-07-31T05:57:07;99683.28;;;28.53;35.39
76603;BME280;65075;48.390;17.598;2023-07-31T05:59:33;99675.31;;;27.03;37.12
76603;BME280;65075;48.390;17.598;2023-07-31T06:01:58;99673.34;;;26.35;38.65
76603;BME280;65075;48.390;17.598;2023-07-31T06:04:24;99687.69;;;28.54;35.37
76603;BME280;65075;48.390;17.598;2023-07-31T06:06:51;99673.94;;;27.16;36.72
76603;BME280;65075;48.390;17.598;2023-07-31T06:09:16;99685.59;;;28.44;34.68
76603;BME280;65075;48.390;17.598;2023-07-31T06:11:42;99691.50;;;28.32;34.95
76603;BME280;65075;48.390;17.598;2023-07-31T06:14:07;99684.56;;;28.59;33.66
76603;BME280;65075;48.390;17.598;2023-07-31T06:16:33;99676.06;;;27.00;36.66
76603;BME280;65075;48.390;17.598;2023-07-31T06:18:58;99682.72;;;28.37;34.27
76603;BME280;65075;48.390;17.598;2023-07-31T06:21:24;99672.31;;;27.15;36.27
76603;BME280;65075;48.390;17.598;2023-07-31T06:23:50;99672.09;;;28.20;33.95
76603;BME280;65075;48.390;17.598;2023-07-31T06:26:15;99674.50;;;28.58;33.73
76603;BME280;65075;48.390;17.598;2023-07-31T06:28:41;99677.34;;;27.88;34.57
76603;BME280;65075;48.390;17.598;2023-07-31T06:31:07;99677.25;;;27.51;35.09
76603;BME280;65075;48.390;17.598;2023-07-31T06:33:32;99667.06;;;28.03;33.21
76603;BME280;65075;48.390;17.598;2023-07-31T06:35:58;99668.03;;;28.54;33.06
76603;BME280;65075;48.390;17.598;2023-07-31T06:38:27;99673.63;;;27.47;33.95
76603;BME280;65075;48.390;17.598;2023-07-31T06:40:53;99683.34;;;28.20;34.62
76603;BME280;65075;48.390;17.598;2023-07-31T06:43:19;99682.06;;;28.51;34.08
76603;BME280;65075;48.390;17.598;2023-07-31T06:45:44;99675.97;;;28.05;33.78
76603;BME280;65075;48.390;17.598;2023-07-31T06:48:11;99673.59;;;28.47;33.61
76603;BME280;65075;48.390;17.598;2023-07-31T06:50:36;99686.22;;;29.76;32.00
76603;BME280;65075;48.390;17.598;2023-07-31T06:53:02;99675.59;;;28.47;32.86
76603;BME280;65075;48.390;17.598;2023-07-31T06:55:28;99686.66;;;28.29;33.76
76603;BME280;65075;48.390;17.598;2023-07-31T06:57:55;99682.13;;;29.02;31.77
76603;BME280;65075;48.390;17.598;2023-07-31T07:00:22;99683.31;;;27.87;34.10
76603;BME280;65075;48.390;17.598;2023-07-31T07:02:48;99691.56;;;28.39;32.65
76603;BME280;65075;48.390;17.598;2023-07-31T07:05:16;99688.34;;;29.25;33.47
76603;BME280;65075;48.390;17.598;2023-07-31T07:07:42;99691.03;;;28.63;32.67
76603;BME280;65075;48.390;17.598;2023-07-31T07:10:08;99686.09;;;29.51;31.34
76603;BME280;65075;48.390;17.598;2023-07-31T07:12:35;99681.91;;;29.24;31.17
76603;BME280;65075;48.390;17.598;2023-07-31T07:15:01;99685.72;;;29.53;31.37
76603;BME280;65075;48.390;17.598;2023-07-31T07:17:29;99666.91;;;29.75;30.83
76603;BME280;65075;48.390;17.598;2023-07-31T07:19:56;99683.78;;;29.71;31.87
76603;BME280;65075;48.390;17.598;2023-07-31T07:22:22;99705.44;;;31.31;28.60
76603;BME280;65075;48.390;17.598;2023-07-31T07:24:48;99688.97;;;31.01;29.65
76603;BME280;65075;48.390;17.598;2023-07-31T07:27:13;99686.94;;;32.38;28.33
76603;BME280;65075;48.390;17.598;2023-07-31T07:29:40;99688.47;;;33.08;26.79
76603;BME280;65075;48.390;17.598;2023-07-31T07:32:05;99690.91;;;33.06;26.28
76603;BME280;65075;48.390;17.598;2023-07-31T07:34:31;99699.41;;;33.06;25.98
76603;BME280;65075;48.390;17.598;2023-07-31T07:36:56;99691.78;;;32.38;27.09
76603;BME280;65075;48.390;17.598;2023-07-31T07:39:22;99682.75;;;32.67;27.06
76603;BME280;65075;48.390;17.598;2023-07-31T07:41:48;99685.28;;;31.54;28.77
76603;BME280;65075;48.390;17.598;2023-07-31T07:44:13;99682.28;;;33.20;27.52
76603;BME280;65075;48.390;17.598;2023-07-31T07:46:39;99680.50;;;30.87;29.54
76603;BME280;65075;48.390;17.598;2023-07-31T07:49:05;99700.84;;;31.97;28.03
76603;BME280;65075;48.390;17.598;2023-07-31T07:51:30;99692.09;;;31.67;28.20
76603;BME280;65075;48.390;17.598;2023-07-31T07:53:57;99691.34;;;32.43;26.98
76603;BME280;65075;48.390;17.598;2023-07-31T07:56:25;99694.13;;;32.53;26.81
76603;BME280;65075;48.390;17.598;2023-07-31T07:58:51;99680.69;;;31.95;26.80
76603;BME280;65075;48.390;17.598;2023-07-31T08:01:17;99676.91;;;31.04;29.56
76603;BME280;65075;48.390;17.598;2023-07-31T08:03:42;99687.16;;;31.85;28.56
76603;BME280;65075;48.390;17.598;2023-07-31T08:06:09;99653.75;;;31.77;27.35
76603;BME280;65075;48.390;17.598;2023-07-31T08:08:35;99648.41;;;32.03;27.06
76603;BME280;65075;48.390;17.598;2023-07-31T08:11:01;99692.78;;;34.59;24.81
76603;BME280;65075;48.390;17.598;2023-07-31T08:13:26;99695.19;;;31.94;28.22
76603;BME280;65075;48.390;17.598;2023-07-31T08:15:52;99690.75;;;32.10;28.66
76603;BME280;65075;48.390;17.598;2023-07-31T08:18:17;99655.06;;;31.37;28.92
76603;BME280;65075;48.390;17.598;2023-07-31T08:20:43;99688.03;;;31.75;28.23
76603;BME280;65075;48.390;17.598;2023-07-31T08:23:09;99689.47;;;32.22;26.10
76603;BME280;65075;48.390;17.598;2023-07-31T08:25:36;99687.31;;;32.40;26.13
76603;BME280;65075;48.390;17.598;2023-07-31T08:28:02;99685.59;;;33.12;26.21
76603;BME280;65075;48.390;17.598;2023-07-31T08:30:28;99690.56;;;32.94;26.38
76603;BME280;65075;48.390;17.598;2023-07-31T08:32:53;99686.78;;;32.66;27.61
76603;BME280;65075;48.390;17.598;2023-07-31T08:35:19;99688.06;;;33.03;26.39
76603;BME280;65075;48.390;17.598;2023-07-31T08:37:44;99689.16;;;32.71;26.88
76603;BME280;65075;48.390;17.598;2023-07-31T08:40:10;99688.34;;;32.71;25.49
76603;BME280;65075;48.390;17.598;2023-07-31T08:42:47;99687.09;;;33.27;23.94
76603;BME280;65075;48.390;17.598;2023-07-31T08:45:18;99685.88;;;33.65;24.76
76603;BME280;65075;48.390;17.598;2023-07-31T08:47:49;99683.34;;;32.93;24.57
76603;BME280;65075;48.390;17.598;2023-07-31T08:50:17;99675.97;;;34.44;24.63
76603;BME280;65075;48.390;17.598;2023-07-31T08:52:43;99681.56;;;34.75;23.76
76603;BME280;65075;48.390;17.598;2023-07-31T08:55:09;99684.53;;;35.60;22.20
76603;BME280;65075;48.390;17.598;2023-07-31T08:57:37;99677.31;;;32.28;25.94
76603;BME280;65075;48.390;17.598;2023-07-31T09:00:07;99673.25;;;33.36;24.01
76603;BME280;65075;48.390;17.598;2023-07-31T09:05:15;99649.09;;;34.26;24.66
76603;BME280;65075;48.390;17.598;2023-07-31T09:07:44;99658.41;;;34.26;23.63
76603;BME280;65075;48.390;17.598;2023-07-31T09:10:11;99665.13;;;34.09;23.79
76603;BME280;65075;48.390;17.598;2023-07-31T09:12:38;99675.00;;;35.71;21.01
76603;BME280;65075;48.390;17.598;2023-07-31T09:15:04;99655.88;;;35.32;21.38
76603;BME280;65075;48.390;17.598;2023-07-31T09:17:32;99674.63;;;35.69;22.30
76603;BME280;65075;48.390;17.598;2023-07-31T09:20:13;99670.84;;;34.02;23.96
76603;BME280;65075;48.390;17.598;2023-07-31T09:22:39;99671.97;;;33.78;24.59
76603;BME280;65075;48.390;17.598;2023-07-31T09:25:19;99674.81;;;32.45;25.93
76603;BME280;65075;48.390;17.598;2023-07-31T09:30:14;99665.25;;;32.24;25.16
76603;BME280;65075;48.390;17.598;2023-07-31T09:32:40;99665.72;;;33.60;23.95
76603;BME280;65075;48.390;17.598;2023-07-31T09:35:20;99625.50;;;35.09;20.72
76603;BME280;65075;48.390;17.598;2023-07-31T09:37:53;99653.28;;;34.44;22.15
76603;BME280;65075;48.390;17.598;2023-07-31T09:40:31;99657.31;;;35.83;20.42
76603;BME280;65075;48.390;17.598;2023-07-31T09:43:00;99653.13;;;33.98;24.06
76603;BME280;65075;48.390;17.598;2023-07-31T09:45:27;99633.03;;;33.18;23.84
76603;BME280;65075;48.390;17.598;2023-07-31T09:47:54;99653.38;;;33.77;23.64
76603;BME280;65075;48.390;17.598;2023-07-31T09:50:21;99659.97;;;34.58;22.67
76603;BME280;65075;48.390;17.598;2023-07-31T09:52:47;99658.44;;;34.23;23.43
76603;BME280;65075;48.390;17.598;2023-07-31T09:55:13;99652.47;;;31.95;26.69
76603;BME280;65075;48.390;17.598;2023-07-31T09:57:47;99633.63;;;34.61;22.69
76603;BME280;65075;48.390;17.598;2023-07-31T10:00:16;99632.56;;;33.57;23.82
76603;BME280;65075;48.390;17.598;2023-07-31T10:02:45;99633.88;;;33.15;24.96
76603;BME280;65075;48.390;17.598;2023-07-31T10:05:13;99630.63;;;34.44;22.34
76603;BME280;65075;48.390;17.598;2023-07-31T10:07:42;99631.78;;;35.20;20.98
76603;BME280;65075;48.390;17.598;2023-07-31T10:10:08;99634.78;;;35.92;20.19
76603;BME280;65075;48.390;17.598;2023-07-31T10:12:35;99639.06;;;35.21;22.16
76603;BME280;65075;48.390;17.598;2023-07-31T10:15:02;99639.38;;;35.86;21.43
76603;BME280;65075;48.390;17.598;2023-07-31T10:17:30;99629.75;;;34.47;21.74
76603;BME280;65075;48.390;17.598;2023-07-31T10:20:02;99606.59;;;33.69;21.88
76603;BME280;65075;48.390;17.598;2023-07-31T10:22:31;99623.88;;;34.62;21.47
76603;BME280;65075;48.390;17.598;2023-07-31T10:24:58;99624.56;;;35.58;20.85
76603;BME280;65075;48.390;17.598;2023-07-31T10:27:25;99618.56;;;33.05;23.09
76603;BME280;65075;48.390;17.598;2023-07-31T10:29:53;99628.34;;;33.75;21.87
76603;BME280;65075;48.390;17.598;2023-07-31T10:32:21;99615.13;;;34.99;20.77
76603;BME280;65075;48.390;17.598;2023-07-31T10:34:48;99611.94;;;35.40;19.88
76603;BME280;65075;48.390;17.598;2023-07-31T10:39:59;99603.53;;;33.86;21.86
76603;BME280;65075;48.390;17.598;2023-07-31T10:45:08;99607.78;;;34.28;20.88
76603;BME280;65075;48.390;17.598;2023-07-31T10:47:46;99590.38;;;32.98;22.78
76603;BME280;65075;48.390;17.598;2023-07-31T10:50:20;99603.06;;;34.72;21.02
76603;BME280;65075;48.390;17.598;2023-07-31T10:52:54;99593.78;;;33.23;22.52
76603;BME280;65075;48.390;17.598;2023-07-31T10:55:29;99587.75;;;32.25;23.52
76603;BME280;65075;48.390;17.598;2023-07-31T10:58:10;99565.97;;;31.57;23.19
76603;BME280;65075;48.390;17.598;2023-07-31T11:00:41;99583.84;;;32.09;24.05
76603;BME280;65075;48.390;17.598;2023-07-31T11:03:10;99582.03;;;33.25;23.77
76603;BME280;65075;48.390;17.598;2023-07-31T11:08:17;99574.66;;;30.44;25.28
76603;BME280;65075;48.390;17.598;2023-07-31T11:10:44;99567.44;;;30.53;25.36
76603;BME280;65075;48.390;17.598;2023-07-31T11:13:10;99546.91;;;32.41;23.09
76603;BME280;65075;48.390;17.598;2023-07-31T11:15:36;99565.09;;;33.55;21.22
76603;BME280;65075;48.390;17.598;2023-07-31T11:18:02;99570.09;;;34.31;20.54
76603;BME280;65075;48.390;17.598;2023-07-31T11:20:32;99559.94;;;31.62;24.22
76603;BME280;65075;48.390;17.598;2023-07-31T11:23:03;99545.31;;;31.78;24.23
76603;BME280;65075;48.390;17.598;2023-07-31T11:25:30;99558.25;;;32.34;23.41
76603;BME280;65075;48.390;17.598;2023-07-31T11:27:57;99546.22;;;33.79;22.60
76603;BME280;65075;48.390;17.598;2023-07-31T11:30:23;99545.50;;;32.15;23.59
76603;BME280;65075;48.390;17.598;2023-07-31T11:32:49;99546.91;;;32.41;23.45
76603;BME280;65075;48.390;17.598;2023-07-31T11:35:16;99544.25;;;31.40;24.20
76603;BME280;65075;48.390;17.598;2023-07-31T11:37:42;99550.13;;;31.81;23.38
76603;BME280;65075;48.390;17.598;2023-07-31T11:40:09;99538.75;;;31.91;25.13
76603;BME280;65075;48.390;17.598;2023-07-31T11:42:35;99547.09;;;31.40;25.69
76603;BME280;65075;48.390;17.598;2023-07-31T11:45:18;99533.47;;;32.00;23.54
76603;BME280;65075;48.390;17.598;2023-07-31T11:47:45;99548.88;;;30.63;25.29
76603;BME280;65075;48.390;17.598;2023-07-31T11:50:11;99542.84;;;30.96;26.90
76603;BME280;65075;48.390;17.598;2023-07-31T11:52:44;99523.09;;;30.93;25.31
76603;BME280;65075;48.390;17.598;2023-07-31T11:55:11;99531.78;;;31.41;25.83
76603;BME280;65075;48.390;17.598;2023-07-31T11:57:43;99507.19;;;28.50;28.80
76603;BME280;65075;48.390;17.598;2023-07-31T12:00:11;99518.31;;;29.87;27.82
76603;BME280;65075;48.390;17.598;2023-07-31T12:02:39;99511.06;;;30.57;27.40
76603;BME280;65075;48.390;17.598;2023-07-31T12:05:10;99501.34;;;31.00;25.54
76603;BME280;65075;48.390;17.598;2023-07-31T12:07:53;99503.03;;;30.34;27.26
76603;BME280;65075;48.390;17.598;2023-07-31T12:10:27;99514.69;;;30.19;26.37
76603;BME280;65075;48.390;17.598;2023-07-31T12:13:11;99515.91;;;30.71;26.26
76603;BME280;65075;48.390;17.598;2023-07-31T12:15:40;99509.41;;;29.78;27.40
76603;BME280;65075;48.390;17.598;2023-07-31T12:18:12;99498.09;;;29.50;28.70
76603;BME280;65075;48.390;17.598;2023-07-31T12:20:46;99485.28;;;30.69;26.64
76603;BME280;65075;48.390;17.598;2023-07-31T12:23:23;99491.00;;;30.48;26.73
76603;BME280;65075;48.390;17.598;2023-07-31T12:26:09;99494.94;;;30.75;26.04
76603;BME280;65075;48.390;17.598;2023-07-31T12:28:43;99487.66;;;30.92;26.59
76603;BME280;65075;48.390;17.598;2023-07-31T12:33:40;99489.38;;;30.47;26.18
76603;BME280;65075;48.390;17.598;2023-07-31T12:36:11;99486.16;;;30.31;26.67
76603;BME280;65075;48.390;17.598;2023-07-31T12:38:40;99467.53;;;29.31;27.95
76603;BME280;65075;48.390;17.598;2023-07-31T12:41:06;99448.94;;;27.85;30.39
76603;BME280;65075;48.390;17.598;2023-07-31T12:43:35;99474.28;;;28.47;29.06
76603;BME280;65075;48.390;17.598;2023-07-31T12:46:01;99462.53;;;29.00;29.12
76603;BME280;65075;48.390;17.598;2023-07-31T12:48:27;99455.53;;;29.59;27.51
76603;BME280;65075;48.390;17.598;2023-07-31T12:50:53;99470.84;;;30.32;27.72
76603;BME280;65075;48.390;17.598;2023-07-31T12:53:18;99464.22;;;29.15;28.67
76603;BME280;65075;48.390;17.598;2023-07-31T12:55:44;99456.38;;;30.23;26.00
76603;BME280;65075;48.390;17.598;2023-07-31T12:58:10;99442.22;;;30.76;25.88
76603;BME280;65075;48.390;17.598;2023-07-31T13:00:35;99450.50;;;31.22;24.59
76603;BME280;65075;48.390;17.598;2023-07-31T13:03:01;99447.53;;;32.08;24.07
76603;BME280;65075;48.390;17.598;2023-07-31T13:05:28;99452.47;;;31.28;24.68
76603;BME280;65075;48.390;17.598;2023-07-31T13:07:54;99444.78;;;31.36;24.24
76603;BME280;65075;48.390;17.598;2023-07-31T13:10:20;99449.34;;;31.15;25.39
76603;BME280;65075;48.390;17.598;2023-07-31T13:12:46;99429.75;;;30.70;25.71